Meknes, Morocco
Current Conditions -  °F | °C
As of 4:00 PM on Thursday 18 Dec 2014 (Local Time) from GMFM Reporting Station
Few Clouds Few Clouds  
Wind Chill: 59°   Ceiling: Unl
Heat Index: 59°   Visibility: 5mi
Dew Point: 48°   Wind: 5mph
Humidity: 67%   Direction: 330°NNW
Pressure: 30.33"   Gusts: NA
Location:  33.9°N, 5.56°W
Report Text: GMFM 181500Z 33004KT 8000 FEW016 15/09 Q1027 NOSIG
Loading
Personal Weather Stations






























Interactive Weather Map New forecast layout! Learn more

10-Day Weather Forecast

Advertisements
Track Severe Weather on mobile